Terminal Aerodrome Forecast
Issued by NWS

Home | Current Version | Previous Version | Text Only | Print | Product List | Glossary On
Versions: 1 2 3 4 5 6 7 8 9 10 11 12 13 14 15
000
FTUS46 KSGX 060520
TAFONT
TAF
KONT 060520Z 0606/0712 25006KT P6SM SCT035
     FM061000 VRB03KT P6SM OVC030
     FM061800 VRB05KT P6SM SCT025 BKN035
     FM062000 24011G19KT P6SM SCT040
     FM070400 VRB04KT P6SM BKN035
     FM070900 VRB04KT P6SM OVC030=

USA.gov is the U.S. government's official web portal to all federal, state and local government web resources and services.